You are not logged in, Click here to log in
ICAO: ROAH Country: 日本沖繩縣那霸市
Latitude: 26.2064 Longitude: 127.647
Total Arrivals: 265 Total Departures: 245
Latest Arrival: IT0230 (RCTP-ROAH)Chun Tang. Chiang Latest Departure: JW800 (ROAH-RJAA)Chun Tang. Chiang
Scenery:
METAR : ROAH 200305Z 16015G25KT 9999 SCT016 BKN023 32/26 Q1006 RMK 3CU016 6CU023 A2973

那覇空港OKA